Marietta, Mississippi
Current Conditions -  °F | °C
As of 6:53 PM on Tuesday 27 Jan 2015 (Local Time) from KTUP Reporting Station
Clear Clear  
Wind Chill: 45°   Ceiling: Unl
Heat Index: 48°   Visibility: 10mi
Dew Point: 32°   Wind: 7mph
Humidity: 54%   Direction: 10°N
Pressure: 30.16"   Gusts: NA
Location:  34.5°N, 88.47°W
Report Text: KTUP 280053Z 01006KT 10SM CLR 09/00 A3016 RMK AO2 SLP214 T00890000
Loading
Personal Weather Stations






























Interactive Weather Map New forecast layout! Learn more

10-Day Weather Forecast

Advertisements
Track Severe Weather on mobile